CheckWX is a tool to help pilots better visualize weather data.  It is not intended as a substitute for an official pre-flight weather briefing.

11:57:00 UTC

CYFC TAF
Fredericton Airport
Fredericton, Canada
TAF CYFC 281138Z 2812/2824 36010KT P6SM BKN040 TEMPO 2812/2816 P6SM -SN BKN015 OVC040 RMK FCST BASED ON AUTO OBS. NXT FCST BY 281800Z

Jan-28@
12:00 UTC

Jan-28 @ 12:00 UTC

Jan-29@
00:00 UTC

Jan-29 @ 00:00 UTC

TAF CYFC 281138Z 2812/2824 36010KT P6SM BKN040
Wind
  • 360° at 10 KTS
Cloud Levels
  • Broken at 4,000' AGL

Jan-28@
12:00 UTC

Jan-28 @ 12:00 UTC

Jan-28@
16:00 UTC

Jan-28 @ 16:00 UTC

TEMPO 2812/2816 P6SM -SN BKN015 OVC040 RMK FCST BASED ON AUTO OBS. NXT FCST BY 281800Z

Temporary

Temporary Changes expected for less than half the time period

Conditions
Light Snow
Cloud Levels
  • Broken at 1,500' AGL
  • Overcast at 4,000' AGL